Time;durP1;ratioP1;P1;durP2;ratioP2;P2;SDS_P1;SDS_P2;PMS_P1;PMS_P2;Temp;Humidity;BMP_temperature;BMP_pressure;BME280_temperature;BME280_humidity;BME280_pressure;Samples;Min_cycle;Max_cycle;Signal;HPM_P1;HPM_P2
2022/05/29 00:00:00;;;;;;;0.6;0.6;;;;;;;11.9;100.0;101540;;;;
2022/05/29 00:01:00;;;;;;;0.6;0.6;;;;;;;11.9;100.0;101540;;;;
2022/05/29 00:02:00;;;;;;;0.6;0.6;;;;;;;11.9;100.0;101540;;;;
2022/05/29 00:03:00;;;;;;;0.6;0.6;;;;;;;11.9;100.0;101540;;;;
2022/05/29 00:04:00;;;;;;;0.6;0.6;;;;;;;11.9;100.0;101540;;;;
2022/05/29 00:05:00;;;;;;;0.6;0.6;;;;;;;11.9;100.0;101540;;;;
2022/05/29 00:06:01;;;;;;;0.6;0.6;;;;;;;11.7;100.0;101540;;;;
2022/05/29 00:07:00;;;;;;;0.6;0.6;;;;;;;11.7;100.0;101540;;;;
2022/05/29 00:08:00;;;;;;;0.6;0.6;;;;;;;11.8;100.0;101530;;;;
2022/05/29 00:09:00;;;;;;;0.9;0.9;;;;;;;11.8;100.0;101530;;;;
2022/05/29 00:10:01;;;;;;;0.9;0.9;;;;;;;11.9;100.0;101530;;;;
2022/05/29 00:11:00;;;;;;;0.9;0.9;;;;;;;11.9;100.0;101530;;;;
2022/05/29 00:12:01;;;;;;;0.9;0.9;;;;;;;11.8;100.0;101530;;;;
2022/05/29 00:13:00;;;;;;;0.9;0.9;;;;;;;11.8;100.0;101530;;;;
2022/05/29 00:14:00;;;;;;;0.9;0.9;;;;;;;11.8;100.0;101530;;;;
2022/05/29 00:15:00;;;;;;;0.9;0.9;;;;;;;11.8;100.0;101530;;;;
2022/05/29 00:16:00;;;;;;;0.9;0.9;;;;;;;11.8;100.0;101530;;;;
2022/05/29 00:17:00;;;;;;;0.9;0.9;;;;;;;11.8;100.0;101530;;;;
2022/05/29 00:18:00;;;;;;;0.9;0.9;;;;;;;11.9;100.0;101530;;;;
2022/05/29 00:19:00;;;;;;;0.9;0.9;;;;;;;11.9;100.0;101530;;;;
2022/05/29 00:20:00;;;;;;;0.9;0.9;;;;;;;12.0;100.0;101530;;;;
2022/05/29 00:21:00;;;;;;;0.9;0.9;;;;;;;12.0;100.0;101530;;;;
2022/05/29 00:22:01;;;;;;;0.9;0.9;;;;;;;11.9;100.0;101530;;;;
2022/05/29 00:23:00;;;;;;;0.9;0.9;;;;;;;11.9;100.0;101530;;;;
2022/05/29 00:24:00;;;;;;;0.9;0.9;;;;;;;11.9;100.0;101530;;;;
2022/05/29 00:25:01;;;;;;;0.9;0.9;;;;;;;11.9;100.0;101530;;;;
2022/05/29 00:26:00;;;;;;;0.9;0.9;;;;;;;11.8;100.0;101530;;;;
2022/05/29 00:27:00;;;;;;;0.9;0.9;;;;;;;11.8;100.0;101530;;;;
2022/05/29 00:28:00;;;;;;;0.9;0.9;;;;;;;12.0;100.0;101530;;;;
2022/05/29 00:29:00;;;;;;;0.8;0.8;;;;;;;12.0;100.0;101530;;;;
2022/05/29 00:30:00;;;;;;;0.8;0.8;;;;;;;12.0;100.0;101520;;;;
2022/05/29 00:31:00;;;;;;;0.8;0.8;;;;;;;12.0;100.0;101520;;;;
2022/05/29 00:32:00;;;;;;;0.8;0.8;;;;;;;12.0;100.0;101520;;;;
2022/05/29 00:33:00;;;;;;;0.8;0.8;;;;;;;12.0;100.0;101520;;;;
2022/05/29 00:34:00;;;;;;;0.8;0.8;;;;;;;12.0;100.0;101520;;;;
2022/05/29 00:35:00;;;;;;;0.8;0.8;;;;;;;12.0;100.0;101520;;;;
2022/05/29 00:36:00;;;;;;;0.8;0.8;;;;;;;11.9;100.0;101520;;;;
2022/05/29 00:37:00;;;;;;;0.8;0.8;;;;;;;11.9;100.0;101520;;;;
2022/05/29 00:38:00;;;;;;;0.8;0.8;;;;;;;11.9;100.0;101510;;;;
2022/05/29 00:39:00;;;;;;;0.8;0.8;;;;;;;11.9;100.0;101510;;;;
2022/05/29 00:40:00;;;;;;;0.8;0.8;;;;;;;11.9;100.0;101510;;;;
2022/05/29 00:41:08;;;;;;;0.8;0.8;;;;;;;11.9;100.0;101510;;;;
2022/05/29 00:42:03;;;;;;;0.8;0.8;;;;;;;12.0;100.0;101510;;;;
2022/05/29 00:43:00;;;;;;;0.8;0.8;;;;;;;12.0;100.0;101510;;;;
2022/05/29 00:44:10;;;;;;;0.8;0.8;;;;;;;11.7;100.0;101520;;;;
2022/05/29 00:45:00;;;;;;;0.8;0.8;;;;;;;11.7;100.0;101520;;;;
2022/05/29 00:46:01;;;;;;;0.8;0.8;;;;;;;11.8;100.0;101510;;;;
2022/05/29 00:47:09;;;;;;;0.8;0.8;;;;;;;11.8;100.0;101510;;;;
2022/05/29 00:48:03;;;;;;;0.8;0.8;;;;;;;11.9;100.0;101510;;;;
2022/05/29 00:49:04;;;;;;;0.6;0.6;;;;;;;11.9;100.0;101510;;;;
2022/05/29 00:50:00;;;;;;;0.6;0.6;;;;;;;11.8;100.0;101510;;;;
2022/05/29 00:51:01;;;;;;;0.6;0.6;;;;;;;11.8;100.0;101510;;;;
2022/05/29 00:52:10;;;;;;;0.6;0.6;;;;;;;11.6;100.0;101500;;;;
2022/05/29 00:53:00;;;;;;;0.6;0.6;;;;;;;11.6;100.0;101500;;;;
2022/05/29 00:54:00;;;;;;;0.6;0.6;;;;;;;11.7;100.0;101500;;;;
2022/05/29 00:55:02;;;;;;;0.6;0.6;;;;;;;11.7;100.0;101500;;;;
2022/05/29 00:56:03;;;;;;;0.6;0.6;;;;;;;11.7;100.0;101500;;;;
2022/05/29 00:57:00;;;;;;;0.6;0.6;;;;;;;11.7;100.0;101500;;;;
2022/05/29 00:58:02;;;;;;;0.6;0.6;;;;;;;11.8;100.0;101500;;;;
2022/05/29 00:59:01;;;;;;;0.6;0.6;;;;;;;11.8;100.0;101500;;;;
2022/05/29 01:00:04;;;;;;;0.6;0.6;;;;;;;11.7;100.0;101500;;;;
2022/05/29 01:01:02;;;;;;;0.6;0.6;;;;;;;11.7;100.0;101500;;;;
2022/05/29 01:02:02;;;;;;;0.6;0.6;;;;;;;11.6;100.0;101500;;;;
2022/05/29 01:03:01;;;;;;;0.6;0.6;;;;;;;11.6;100.0;101500;;;;
2022/05/29 01:04:00;;;;;;;0.6;0.6;;;;;;;11.9;100.0;101500;;;;
2022/05/29 01:05:02;;;;;;;0.6;0.6;;;;;;;11.9;100.0;101500;;;;
2022/05/29 01:06:00;;;;;;;0.6;0.6;;;;;;;11.9;100.0;101500;;;;
2022/05/29 01:07:02;;;;;;;0.6;0.6;;;;;;;11.9;100.0;101500;;;;
2022/05/29 01:08:02;;;;;;;0.6;0.6;;;;;;;11.9;100.0;101490;;;;
2022/05/29 01:09:00;;;;;;;0.9;0.9;;;;;;;11.9;100.0;101490;;;;
2022/05/29 01:10:00;;;;;;;0.9;0.9;;;;;;;12.0;100.0;101490;;;;
2022/05/29 01:11:10;;;;;;;0.9;0.9;;;;;;;12.0;100.0;101490;;;;
2022/05/29 01:12:03;;;;;;;0.9;0.9;;;;;;;11.9;100.0;101490;;;;
2022/05/29 01:13:06;;;;;;;0.9;0.9;;;;;;;11.9;100.0;101490;;;;
2022/05/29 01:14:10;;;;;;;0.9;0.9;;;;;;;11.8;100.0;101480;;;;
2022/05/29 01:15:10;;;;;;;0.9;0.9;;;;;;;11.8;100.0;101480;;;;
2022/05/29 01:16:00;;;;;;;0.9;0.9;;;;;;;11.7;100.0;101480;;;;
2022/05/29 01:17:10;;;;;;;0.9;0.9;;;;;;;11.7;100.0;101480;;;;
2022/05/29 01:18:10;;;;;;;0.9;0.9;;;;;;;11.6;100.0;101480;;;;
2022/05/29 01:19:09;;;;;;;0.9;0.9;;;;;;;11.6;100.0;101480;;;;
2022/05/29 01:20:10;;;;;;;0.9;0.9;;;;;;;11.8;100.0;101480;;;;
2022/05/29 01:21:00;;;;;;;0.9;0.9;;;;;;;11.8;100.0;101480;;;;
2022/05/29 01:22:08;;;;;;;0.9;0.9;;;;;;;11.8;100.0;101480;;;;
2022/05/29 01:23:10;;;;;;;0.9;0.9;;;;;;;11.8;100.0;101480;;;;
2022/05/29 01:24:01;;;;;;;0.9;0.9;;;;;;;11.7;100.0;101480;;;;
2022/05/29 01:25:07;;;;;;;0.9;0.9;;;;;;;11.7;100.0;101480;;;;
2022/05/29 01:26:04;;;;;;;0.9;0.9;;;;;;;11.6;100.0;101480;;;;
2022/05/29 01:27:10;;;;;;;0.9;0.9;;;;;;;11.6;100.0;101480;;;;
2022/05/29 01:28:04;;;;;;;0.9;0.9;;;;;;;11.6;100.0;101470;;;;
2022/05/29 01:29:01;;;;;;;0.7;0.7;;;;;;;11.6;100.0;101470;;;;
2022/05/29 01:30:10;;;;;;;0.7;0.7;;;;;;;11.6;100.0;101470;;;;
2022/05/29 01:31:06;;;;;;;0.7;0.7;;;;;;;11.6;100.0;101470;;;;
2022/05/29 01:32:03;;;;;;;0.7;0.7;;;;;;;11.7;100.0;101470;;;;
2022/05/29 01:33:07;;;;;;;0.7;0.7;;;;;;;11.7;100.0;101470;;;;
2022/05/29 01:34:10;;;;;;;0.7;0.7;;;;;;;11.6;100.0;101470;;;;
2022/05/29 01:35:04;;;;;;;0.7;0.7;;;;;;;11.6;100.0;101470;;;;
2022/05/29 01:36:00;;;;;;;0.7;0.7;;;;;;;11.7;100.0;101470;;;;
2022/05/29 01:37:10;;;;;;;0.7;0.7;;;;;;;11.7;100.0;101470;;;;
2022/05/29 01:38:10;;;;;;;0.7;0.7;;;;;;;11.8;100.0;101470;;;;
2022/05/29 01:39:06;;;;;;;0.7;0.7;;;;;;;11.8;100.0;101470;;;;
2022/05/29 01:40:10;;;;;;;0.7;0.7;;;;;;;11.8;100.0;101470;;;;
2022/05/29 01:41:06;;;;;;;0.7;0.7;;;;;;;11.8;100.0;101470;;;;
2022/05/29 01:42:01;;;;;;;0.7;0.7;;;;;;;11.6;100.0;101460;;;;
2022/05/29 01:43:10;;;;;;;0.7;0.7;;;;;;;11.6;100.0;101460;;;;
2022/05/29 01:44:00;;;;;;;0.7;0.7;;;;;;;11.7;100.0;101460;;;;
2022/05/29 01:45:06;;;;;;;0.7;0.7;;;;;;;11.7;100.0;101460;;;;
2022/05/29 01:46:05;;;;;;;0.7;0.7;;;;;;;11.6;100.0;101460;;;;
2022/05/29 01:47:05;;;;;;;0.7;0.7;;;;;;;11.6;100.0;101460;;;;
2022/05/29 01:48:04;;;;;;;0.7;0.7;;;;;;;11.6;100.0;101460;;;;
2022/05/29 01:49:05;;;;;;;0.7;0.7;;;;;;;11.6;100.0;101460;;;;
2022/05/29 01:50:06;;;;;;;0.7;0.7;;;;;;;11.7;100.0;101460;;;;
2022/05/29 01:51:05;;;;;;;0.7;0.7;;;;;;;11.7;100.0;101460;;;;
2022/05/29 01:52:10;;;;;;;0.7;0.7;;;;;;;11.8;100.0;101460;;;;
2022/05/29 01:53:02;;;;;;;0.7;0.7;;;;;;;11.8;100.0;101460;;;;
2022/05/29 01:54:04;;;;;;;0.7;0.7;;;;;;;11.7;100.0;101460;;;;
2022/05/29 01:55:05;;;;;;;0.7;0.7;;;;;;;11.7;100.0;101460;;;;
2022/05/29 01:56:05;;;;;;;0.7;0.7;;;;;;;11.7;100.0;101450;;;;
2022/05/29 01:57:06;;;;;;;0.7;0.7;;;;;;;11.7;100.0;101450;;;;
2022/05/29 01:58:04;;;;;;;0.7;0.7;;;;;;;11.7;100.0;101450;;;;
2022/05/29 01:59:05;;;;;;;0.7;0.7;;;;;;;11.7;100.0;101450;;;;
2022/05/29 02:00:03;;;;;;;0.7;0.7;;;;;;;11.8;100.0;101450;;;;
2022/05/29 02:01:01;;;;;;;0.7;0.7;;;;;;;11.8;100.0;101450;;;;
2022/05/29 02:02:03;;;;;;;0.7;0.7;;;;;;;11.8;100.0;101450;;;;
2022/05/29 02:03:03;;;;;;;0.7;0.7;;;;;;;11.8;100.0;101450;;;;
2022/05/29 02:04:03;;;;;;;0.7;0.7;;;;;;;11.9;100.0;101450;;;;
2022/05/29 02:05:02;;;;;;;0.7;0.7;;;;;;;11.9;100.0;101450;;;;
2022/05/29 02:06:04;;;;;;;0.7;0.7;;;;;;;11.9;100.0;101450;;;;
2022/05/29 02:08:06;;;;;;;0.7;0.7;;;;;;;11.9;100.0;101450;;;;
2022/05/29 02:09:02;;;;;;;0.8;0.8;;;;;;;11.9;100.0;101450;;;;
2022/05/29 02:10:10;;;;;;;0.8;0.8;;;;;;;11.8;100.0;101450;;;;
2022/05/29 02:11:04;;;;;;;0.8;0.8;;;;;;;11.8;100.0;101450;;;;
2022/05/29 02:12:00;;;;;;;0.8;0.8;;;;;;;11.7;100.0;101450;;;;
2022/05/29 02:13:10;;;;;;;0.8;0.8;;;;;;;11.7;100.0;101450;;;;
2022/05/29 02:14:03;;;;;;;0.8;0.8;;;;;;;11.5;100.0;101450;;;;
2022/05/29 02:15:05;;;;;;;0.8;0.8;;;;;;;11.5;100.0;101450;;;;
2022/05/29 02:16:04;;;;;;;0.8;0.8;;;;;;;11.6;100.0;101440;;;;
2022/05/29 02:17:04;;;;;;;0.8;0.8;;;;;;;11.6;100.0;101440;;;;
2022/05/29 02:18:02;;;;;;;0.8;0.8;;;;;;;11.5;100.0;101440;;;;
2022/05/29 02:19:10;;;;;;;0.8;0.8;;;;;;;11.5;100.0;101440;;;;
2022/05/29 02:20:03;;;;;;;0.8;0.8;;;;;;;11.6;100.0;101450;;;;
2022/05/29 02:21:03;;;;;;;0.8;0.8;;;;;;;11.6;100.0;101450;;;;
2022/05/29 02:22:03;;;;;;;0.8;0.8;;;;;;;11.5;100.0;101440;;;;
2022/05/29 02:23:09;;;;;;;0.8;0.8;;;;;;;11.5;100.0;101440;;;;
2022/05/29 02:24:04;;;;;;;0.8;0.8;;;;;;;11.5;100.0;101440;;;;
2022/05/29 02:25:02;;;;;;;0.8;0.8;;;;;;;11.5;100.0;101440;;;;
2022/05/29 02:26:01;;;;;;;0.8;0.8;;;;;;;11.5;100.0;101440;;;;
2022/05/29 02:27:10;;;;;;;0.8;0.8;;;;;;;11.5;100.0;101440;;;;
2022/05/29 02:28:00;;;;;;;0.8;0.8;;;;;;;11.5;100.0;101430;;;;
2022/05/29 02:29:03;;;;;;;0.9;0.9;;;;;;;11.5;100.0;101430;;;;
2022/05/29 02:30:01;;;;;;;0.9;0.9;;;;;;;11.6;100.0;101430;;;;
2022/05/29 02:31:04;;;;;;;0.9;0.9;;;;;;;11.6;100.0;101430;;;;
2022/05/29 02:32:03;;;;;;;0.9;0.9;;;;;;;11.6;100.0;101430;;;;
2022/05/29 02:33:01;;;;;;;0.9;0.9;;;;;;;11.6;100.0;101430;;;;
2022/05/29 02:34:00;;;;;;;0.9;0.9;;;;;;;11.5;100.0;101430;;;;
2022/05/29 02:35:10;;;;;;;0.9;0.9;;;;;;;11.5;100.0;101430;;;;
2022/05/29 02:37:10;;;;;;;0.9;0.9;;;;;;;11.6;100.0;101430;;;;
2022/05/29 02:38:03;;;;;;;0.9;0.9;;;;;;;11.5;100.0;101430;;;;
2022/05/29 02:39:10;;;;;;;0.9;0.9;;;;;;;11.5;100.0;101430;;;;
2022/05/29 02:40:07;;;;;;;0.9;0.9;;;;;;;11.5;100.0;101430;;;;
2022/05/29 02:41:06;;;;;;;0.9;0.9;;;;;;;11.5;100.0;101430;;;;
2022/05/29 02:42:10;;;;;;;0.9;0.9;;;;;;;11.4;100.0;101420;;;;
2022/05/29 02:43:07;;;;;;;0.9;0.9;;;;;;;11.4;100.0;101420;;;;
2022/05/29 02:44:05;;;;;;;0.9;0.9;;;;;;;11.4;100.0;101420;;;;
2022/05/29 02:45:05;;;;;;;0.9;0.9;;;;;;;11.4;100.0;101420;;;;
2022/05/29 02:46:06;;;;;;;0.9;0.9;;;;;;;11.3;100.0;101420;;;;
2022/05/29 02:47:11;;;;;;;0.9;0.9;;;;;;;11.3;100.0;101420;;;;
2022/05/29 02:48:05;;;;;;;1.4;1.1;;;;;;;11.3;100.0;101420;;;;
2022/05/29 02:49:10;;;;;;;1.4;1.1;;;;;;;11.3;100.0;101420;;;;
2022/05/29 02:50:06;;;;;;;1.4;1.1;;;;;;;11.2;100.0;101420;;;;
2022/05/29 02:51:09;;;;;;;1.4;1.1;;;;;;;11.2;100.0;101420;;;;
2022/05/29 02:52:05;;;;;;;1.4;1.1;;;;;;;11.3;100.0;101410;;;;
2022/05/29 02:53:06;;;;;;;1.4;1.1;;;;;;;11.3;100.0;101410;;;;
2022/05/29 02:54:00;;;;;;;1.4;1.1;;;;;;;11.4;100.0;101410;;;;
2022/05/29 02:55:00;;;;;;;1.4;1.1;;;;;;;11.4;100.0;101410;;;;
2022/05/29 02:56:03;;;;;;;1.4;1.1;;;;;;;11.5;100.0;101410;;;;
2022/05/29 02:57:00;;;;;;;1.4;1.1;;;;;;;11.5;100.0;101410;;;;
2022/05/29 02:58:01;;;;;;;1.4;1.1;;;;;;;11.4;100.0;101410;;;;
2022/05/29 02:59:00;;;;;;;1.4;1.1;;;;;;;11.4;100.0;101410;;;;
2022/05/29 03:00:07;;;;;;;1.4;1.1;;;;;;;11.3;100.0;101410;;;;
2022/05/29 03:01:08;;;;;;;1.4;1.1;;;;;;;11.3;100.0;101410;;;;
2022/05/29 03:02:10;;;;;;;1.4;1.1;;;;;;;11.4;100.0;101410;;;;
2022/05/29 03:03:10;;;;;;;1.4;1.1;;;;;;;11.4;100.0;101410;;;;
2022/05/29 03:04:10;;;;;;;1.4;1.1;;;;;;;11.4;100.0;101410;;;;
2022/05/29 03:05:03;;;;;;;1.4;1.1;;;;;;;11.4;100.0;101410;;;;
2022/05/29 03:06:07;;;;;;;1.4;1.1;;;;;;;11.4;100.0;101400;;;;
2022/05/29 03:07:10;;;;;;;1.4;1.1;;;;;;;11.4;100.0;101400;;;;
2022/05/29 03:08:10;;;;;;;0.7;0.7;;;;;;;11.4;100.0;101400;;;;
2022/05/29 03:09:04;;;;;;;0.7;0.7;;;;;;;11.4;100.0;101400;;;;
2022/05/29 03:10:07;;;;;;;0.7;0.7;;;;;;;11.6;100.0;101410;;;;
2022/05/29 03:11:01;;;;;;;0.7;0.7;;;;;;;11.6;100.0;101410;;;;
2022/05/29 03:12:01;;;;;;;0.7;0.7;;;;;;;11.5;100.0;101410;;;;
2022/05/29 03:13:03;;;;;;;0.7;0.7;;;;;;;11.5;100.0;101410;;;;
2022/05/29 03:14:04;;;;;;;0.7;0.7;;;;;;;11.4;100.0;101410;;;;
2022/05/29 03:15:07;;;;;;;0.7;0.7;;;;;;;11.4;100.0;101410;;;;
2022/05/29 03:16:07;;;;;;;0.7;0.7;;;;;;;11.5;100.0;101400;;;;
2022/05/29 03:17:11;;;;;;;0.7;0.7;;;;;;;11.5;100.0;101400;;;;
2022/05/29 03:18:07;;;;;;;0.7;0.7;;;;;;;11.4;100.0;101400;;;;
2022/05/29 03:19:08;;;;;;;0.7;0.7;;;;;;;11.4;100.0;101400;;;;
2022/05/29 03:20:10;;;;;;;0.7;0.7;;;;;;;11.4;100.0;101400;;;;
2022/05/29 03:21:03;;;;;;;0.7;0.7;;;;;;;11.4;100.0;101400;;;;
2022/05/29 03:22:05;;;;;;;0.7;0.7;;;;;;;11.5;100.0;101400;;;;
2022/05/29 03:23:07;;;;;;;0.7;0.7;;;;;;;11.5;100.0;101400;;;;
2022/05/29 03:24:10;;;;;;;0.7;0.7;;;;;;;11.3;100.0;101400;;;;
2022/05/29 03:25:10;;;;;;;0.7;0.7;;;;;;;11.3;100.0;101400;;;;
2022/05/29 03:26:03;;;;;;;0.7;0.7;;;;;;;11.2;100.0;101400;;;;
2022/05/29 03:27:06;;;;;;;0.7;0.7;;;;;;;11.2;100.0;101400;;;;
2022/05/29 03:28:00;;;;;;;0.9;0.9;;;;;;;11.3;100.0;101400;;;;
2022/05/29 03:29:04;;;;;;;0.9;0.9;;;;;;;11.3;100.0;101400;;;;
2022/05/29 03:30:05;;;;;;;0.9;0.9;;;;;;;11.4;100.0;101400;;;;
2022/05/29 03:31:04;;;;;;;0.9;0.9;;;;;;;11.4;100.0;101400;;;;
2022/05/29 03:32:01;;;;;;;0.9;0.9;;;;;;;11.3;100.0;101400;;;;
2022/05/29 03:33:01;;;;;;;0.9;0.9;;;;;;;11.3;100.0;101400;;;;
2022/05/29 03:34:00;;;;;;;0.9;0.9;;;;;;;11.3;100.0;101400;;;;
2022/05/29 03:35:10;;;;;;;0.9;0.9;;;;;;;11.3;100.0;101400;;;;
2022/05/29 03:36:03;;;;;;;0.9;0.9;;;;;;;11.4;100.0;101400;;;;
2022/05/29 03:37:00;;;;;;;0.9;0.9;;;;;;;11.4;100.0;101400;;;;
2022/05/29 03:38:01;;;;;;;0.9;0.9;;;;;;;11.5;100.0;101400;;;;
2022/05/29 03:39:00;;;;;;;0.9;0.9;;;;;;;11.5;100.0;101400;;;;
2022/05/29 03:40:00;;;;;;;0.9;0.9;;;;;;;11.4;100.0;101410;;;;
2022/05/29 03:41:02;;;;;;;0.9;0.9;;;;;;;11.4;100.0;101410;;;;
2022/05/29 03:42:00;;;;;;;0.9;0.9;;;;;;;11.4;100.0;101410;;;;
2022/05/29 03:43:00;;;;;;;0.9;0.9;;;;;;;11.4;100.0;101410;;;;
2022/05/29 03:44:00;;;;;;;0.9;0.9;;;;;;;11.4;100.0;101400;;;;
2022/05/29 03:45:00;;;;;;;0.9;0.9;;;;;;;11.4;100.0;101400;;;;
2022/05/29 03:46:00;;;;;;;0.9;0.9;;;;;;;11.4;100.0;101410;;;;
2022/05/29 03:47:00;;;;;;;0.9;0.9;;;;;;;11.4;100.0;101410;;;;
2022/05/29 03:48:01;;;;;;;0.9;0.9;;;;;;;11.5;100.0;101410;;;;
2022/05/29 03:49:00;;;;;;;0.9;0.9;;;;;;;11.5;100.0;101410;;;;
2022/05/29 03:50:00;;;;;;;0.9;0.9;;;;;;;11.4;100.0;101400;;;;
2022/05/29 03:51:04;;;;;;;0.9;0.9;;;;;;;11.4;100.0;101400;;;;
2022/05/29 03:52:01;;;;;;;0.9;0.9;;;;;;;11.4;100.0;101400;;;;
2022/05/29 03:53:01;;;;;;;0.9;0.9;;;;;;;11.4;100.0;101400;;;;
2022/05/29 03:54:00;;;;;;;0.9;0.9;;;;;;;11.4;100.0;101400;;;;
2022/05/29 03:55:01;;;;;;;0.9;0.9;;;;;;;11.4;100.0;101400;;;;
2022/05/29 03:56:00;;;;;;;0.9;0.9;;;;;;;11.3;100.0;101400;;;;
2022/05/29 03:57:00;;;;;;;0.9;0.9;;;;;;;11.3;100.0;101400;;;;
2022/05/29 03:58:00;;;;;;;0.9;0.9;;;;;;;11.3;100.0;101400;;;;
2022/05/29 03:59:00;;;;;;;0.9;0.9;;;;;;;11.3;100.0;101400;;;;
2022/05/29 04:00:00;;;;;;;0.9;0.9;;;;;;;11.4;100.0;101390;;;;
2022/05/29 04:01:00;;;;;;;0.9;0.9;;;;;;;11.4;100.0;101390;;;;
2022/05/29 04:02:00;;;;;;;0.9;0.9;;;;;;;11.4;100.0;101390;;;;
2022/05/29 04:03:02;;;;;;;0.9;0.9;;;;;;;11.4;100.0;101390;;;;
2022/05/29 04:04:01;;;;;;;0.9;0.9;;;;;;;11.4;100.0;101390;;;;
2022/05/29 04:05:00;;;;;;;0.9;0.9;;;;;;;11.4;100.0;101390;;;;
2022/05/29 04:06:00;;;;;;;0.9;0.9;;;;;;;11.4;100.0;101390;;;;
2022/05/29 04:07:00;;;;;;;0.9;0.9;;;;;;;11.4;100.0;101390;;;;
2022/05/29 04:12:07;;;;;;;0.7;0.7;;;;;;;11.3;100.0;101390;;;;
2022/05/29 04:13:00;;;;;;;0.7;0.7;;;;;;;11.3;100.0;101390;;;;
2022/05/29 04:14:00;;;;;;;0.7;0.7;;;;;;;11.4;100.0;101390;;;;
2022/05/29 04:15:00;;;;;;;0.7;0.7;;;;;;;11.4;100.0;101390;;;;
2022/05/29 04:16:00;;;;;;;0.7;0.7;;;;;;;11.5;100.0;101390;;;;
2022/05/29 04:17:00;;;;;;;0.7;0.7;;;;;;;11.5;100.0;101390;;;;
2022/05/29 04:18:00;;;;;;;0.7;0.7;;;;;;;11.5;100.0;101390;;;;
2022/05/29 04:19:00;;;;;;;0.7;0.7;;;;;;;11.5;100.0;101390;;;;
2022/05/29 04:20:00;;;;;;;0.7;0.7;;;;;;;11.5;100.0;101400;;;;
2022/05/29 04:21:00;;;;;;;0.7;0.7;;;;;;;11.5;100.0;101400;;;;
2022/05/29 04:22:00;;;;;;;0.7;0.7;;;;;;;11.5;100.0;101390;;;;
2022/05/29 04:23:00;;;;;;;0.7;0.7;;;;;;;11.5;100.0;101390;;;;
2022/05/29 04:24:00;;;;;;;0.7;0.7;;;;;;;11.6;100.0;101390;;;;
2022/05/29 04:25:00;;;;;;;0.7;0.7;;;;;;;11.6;100.0;101390;;;;
2022/05/29 04:26:00;;;;;;;0.7;0.7;;;;;;;11.6;100.0;101390;;;;
2022/05/29 04:27:00;;;;;;;0.7;0.7;;;;;;;11.6;100.0;101390;;;;
2022/05/29 04:28:01;;;;;;;0.7;0.7;;;;;;;11.6;100.0;101390;;;;
2022/05/29 04:29:00;;;;;;;0.7;0.7;;;;;;;11.6;100.0;101390;;;;
2022/05/29 04:30:00;;;;;;;0.7;0.7;;;;;;;11.6;100.0;101390;;;;
2022/05/29 04:31:00;;;;;;;0.7;0.7;;;;;;;11.6;100.0;101390;;;;
2022/05/29 04:33:00;;;;;;;0.7;0.7;;;;;;;11.6;100.0;101390;;;;
2022/05/29 04:34:00;;;;;;;0.7;0.7;;;;;;;11.6;100.0;101390;;;;
2022/05/29 04:35:00;;;;;;;0.7;0.7;;;;;;;11.6;100.0;101390;;;;
2022/05/29 04:36:00;;;;;;;0.7;0.7;;;;;;;11.6;100.0;101390;;;;
2022/05/29 04:37:00;;;;;;;0.7;0.7;;;;;;;11.6;100.0;101390;;;;
2022/05/29 04:38:00;;;;;;;0.7;0.7;;;;;;;11.6;100.0;101390;;;;
2022/05/29 04:39:00;;;;;;;0.7;0.7;;;;;;;11.6;100.0;101390;;;;
2022/05/29 04:40:00;;;;;;;0.7;0.7;;;;;;;11.6;100.0;101390;;;;
2022/05/29 04:41:04;;;;;;;0.7;0.7;;;;;;;11.6;100.0;101390;;;;
2022/05/29 04:42:00;;;;;;;0.7;0.7;;;;;;;11.6;100.0;101390;;;;
2022/05/29 04:43:00;;;;;;;0.7;0.7;;;;;;;11.6;100.0;101390;;;;
2022/05/29 04:44:00;;;;;;;0.7;0.7;;;;;;;11.5;100.0;101390;;;;
2022/05/29 04:45:00;;;;;;;0.7;0.7;;;;;;;11.5;100.0;101390;;;;
2022/05/29 04:46:00;;;;;;;0.7;0.7;;;;;;;11.4;100.0;101390;;;;
2022/05/29 04:47:00;;;;;;;0.7;0.7;;;;;;;11.4;100.0;101390;;;;
2022/05/29 04:48:00;;;;;;;0.9;0.9;;;;;;;11.4;100.0;101390;;;;
2022/05/29 04:49:00;;;;;;;0.9;0.9;;;;;;;11.4;100.0;101390;;;;
2022/05/29 04:50:00;;;;;;;0.9;0.9;;;;;;;11.4;100.0;101380;;;;
2022/05/29 04:51:01;;;;;;;0.9;0.9;;;;;;;11.4;100.0;101380;;;;
2022/05/29 04:52:00;;;;;;;0.9;0.9;;;;;;;11.4;100.0;101380;;;;
2022/05/29 04:53:00;;;;;;;0.9;0.9;;;;;;;11.4;100.0;101380;;;;
2022/05/29 04:54:00;;;;;;;0.9;0.9;;;;;;;11.4;100.0;101380;;;;
2022/05/29 04:55:00;;;;;;;0.9;0.9;;;;;;;11.4;100.0;101380;;;;
2022/05/29 04:56:00;;;;;;;0.9;0.9;;;;;;;11.4;100.0;101380;;;;
2022/05/29 04:57:00;;;;;;;0.9;0.9;;;;;;;11.4;100.0;101380;;;;
2022/05/29 04:58:00;;;;;;;0.9;0.9;;;;;;;11.3;100.0;101370;;;;
2022/05/29 04:59:00;;;;;;;0.9;0.9;;;;;;;11.3;100.0;101370;;;;
2022/05/29 05:00:00;;;;;;;0.9;0.9;;;;;;;11.3;100.0;101370;;;;
2022/05/29 05:01:01;;;;;;;0.9;0.9;;;;;;;11.3;100.0;101370;;;;
2022/05/29 05:02:01;;;;;;;0.9;0.9;;;;;;;11.4;100.0;101360;;;;
2022/05/29 05:03:01;;;;;;;0.9;0.9;;;;;;;11.4;100.0;101360;;;;
2022/05/29 05:04:00;;;;;;;0.9;0.9;;;;;;;11.1;100.0;101360;;;;
2022/05/29 05:05:00;;;;;;;0.9;0.9;;;;;;;11.1;100.0;101360;;;;
2022/05/29 05:06:00;;;;;;;0.9;0.9;;;;;;;11.1;100.0;101350;;;;
2022/05/29 05:07:00;;;;;;;0.9;0.9;;;;;;;11.1;100.0;101350;;;;
2022/05/29 05:08:00;;;;;;;0.7;0.7;;;;;;;11.1;100.0;101350;;;;
2022/05/29 05:09:00;;;;;;;0.7;0.7;;;;;;;11.1;100.0;101350;;;;
2022/05/29 05:10:00;;;;;;;0.7;0.7;;;;;;;11.0;100.0;101350;;;;
2022/05/29 05:11:00;;;;;;;0.7;0.7;;;;;;;11.0;100.0;101350;;;;
2022/05/29 05:12:00;;;;;;;0.7;0.7;;;;;;;11.1;100.0;101350;;;;
2022/05/29 05:13:08;;;;;;;0.7;0.7;;;;;;;11.1;100.0;101350;;;;
2022/05/29 05:14:00;;;;;;;0.7;0.7;;;;;;;11.1;100.0;101350;;;;
2022/05/29 05:15:00;;;;;;;0.7;0.7;;;;;;;11.1;100.0;101350;;;;
2022/05/29 05:16:01;;;;;;;0.7;0.7;;;;;;;11.2;100.0;101360;;;;
2022/05/29 05:17:00;;;;;;;0.7;0.7;;;;;;;11.2;100.0;101360;;;;
2022/05/29 05:18:00;;;;;;;0.7;0.7;;;;;;;11.3;100.0;101350;;;;
2022/05/29 05:19:00;;;;;;;0.7;0.7;;;;;;;11.3;100.0;101350;;;;
2022/05/29 05:20:00;;;;;;;0.7;0.7;;;;;;;11.4;100.0;101360;;;;
2022/05/29 05:21:04;;;;;;;0.7;0.7;;;;;;;11.4;100.0;101360;;;;
2022/05/29 05:22:01;;;;;;;0.7;0.7;;;;;;;11.3;100.0;101350;;;;
2022/05/29 05:23:00;;;;;;;0.7;0.7;;;;;;;11.3;100.0;101350;;;;
2022/05/29 05:24:00;;;;;;;0.7;0.7;;;;;;;11.2;100.0;101340;;;;
2022/05/29 05:25:01;;;;;;;0.7;0.7;;;;;;;11.2;100.0;101340;;;;
2022/05/29 05:26:00;;;;;;;0.7;0.7;;;;;;;11.3;100.0;101350;;;;
2022/05/29 05:27:00;;;;;;;0.7;0.7;;;;;;;11.3;100.0;101350;;;;
2022/05/29 05:28:00;;;;;;;0.7;0.7;;;;;;;11.2;100.0;101350;;;;
2022/05/29 05:29:00;;;;;;;0.7;0.7;;;;;;;11.2;100.0;101350;;;;
2022/05/29 05:30:00;;;;;;;0.7;0.7;;;;;;;11.3;100.0;101350;;;;
2022/05/29 05:31:00;;;;;;;0.7;0.7;;;;;;;11.3;100.0;101350;;;;
2022/05/29 05:32:00;;;;;;;0.7;0.7;;;;;;;11.2;100.0;101350;;;;
2022/05/29 05:33:00;;;;;;;0.7;0.7;;;;;;;11.2;100.0;101350;;;;
2022/05/29 05:34:00;;;;;;;0.7;0.7;;;;;;;11.2;100.0;101350;;;;
2022/05/29 05:35:03;;;;;;;0.7;0.7;;;;;;;11.2;100.0;101350;;;;
2022/05/29 05:36:00;;;;;;;0.7;0.7;;;;;;;11.3;100.0;101350;;;;
2022/05/29 05:37:00;;;;;;;0.7;0.7;;;;;;;11.3;100.0;101350;;;;
2022/05/29 05:38:00;;;;;;;0.7;0.7;;;;;;;11.4;100.0;101350;;;;
2022/05/29 05:39:00;;;;;;;0.7;0.7;;;;;;;11.4;100.0;101350;;;;
2022/05/29 05:40:00;;;;;;;0.7;0.7;;;;;;;11.4;100.0;101350;;;;
2022/05/29 05:41:00;;;;;;;0.7;0.7;;;;;;;11.4;100.0;101350;;;;
2022/05/29 05:42:00;;;;;;;0.7;0.7;;;;;;;11.4;100.0;101360;;;;
2022/05/29 05:43:00;;;;;;;0.7;0.7;;;;;;;11.4;100.0;101360;;;;
2022/05/29 05:44:00;;;;;;;0.7;0.7;;;;;;;11.4;100.0;101360;;;;
2022/05/29 05:45:00;;;;;;;0.7;0.7;;;;;;;11.4;100.0;101360;;;;
2022/05/29 05:46:00;;;;;;;0.7;0.7;;;;;;;11.2;100.0;101360;;;;
2022/05/29 05:47:02;;;;;;;0.7;0.7;;;;;;;11.2;100.0;101360;;;;
2022/05/29 05:48:00;;;;;;;0.7;0.7;;;;;;;11.4;100.0;101360;;;;
2022/05/29 05:49:00;;;;;;;0.7;0.7;;;;;;;11.4;100.0;101360;;;;
2022/05/29 05:50:00;;;;;;;0.7;0.7;;;;;;;11.5;100.0;101360;;;;
2022/05/29 05:51:00;;;;;;;0.7;0.7;;;;;;;11.5;100.0;101360;;;;
2022/05/29 05:52:00;;;;;;;0.7;0.7;;;;;;;11.4;100.0;101360;;;;
2022/05/29 05:53:00;;;;;;;0.7;0.7;;;;;;;11.4;100.0;101360;;;;
2022/05/29 05:54:00;;;;;;;0.7;0.7;;;;;;;11.4;100.0;101370;;;;
2022/05/29 05:55:02;;;;;;;0.7;0.7;;;;;;;11.4;100.0;101370;;;;
2022/05/29 05:56:04;;;;;;;0.7;0.7;;;;;;;11.4;100.0;101370;;;;
2022/05/29 05:57:00;;;;;;;0.7;0.7;;;;;;;11.4;100.0;101370;;;;
2022/05/29 05:58:00;;;;;;;0.7;0.7;;;;;;;11.5;100.0;101370;;;;
2022/05/29 05:59:00;;;;;;;0.7;0.7;;;;;;;11.5;100.0;101370;;;;
2022/05/29 06:00:00;;;;;;;0.7;0.7;;;;;;;11.5;100.0;101370;;;;
2022/05/29 06:01:04;;;;;;;0.7;0.7;;;;;;;11.5;100.0;101370;;;;
2022/05/29 06:02:00;;;;;;;0.7;0.7;;;;;;;11.5;100.0;101370;;;;
2022/05/29 06:03:00;;;;;;;0.7;0.7;;;;;;;11.5;100.0;101370;;;;
2022/05/29 06:04:00;;;;;;;0.7;0.7;;;;;;;11.3;100.0;101370;;;;
2022/05/29 06:05:00;;;;;;;0.7;0.7;;;;;;;11.3;100.0;101370;;;;
2022/05/29 06:06:00;;;;;;;0.7;0.7;;;;;;;11.6;100.0;101370;;;;
2022/05/29 06:07:00;;;;;;;0.7;0.7;;;;;;;11.6;100.0;101370;;;;
2022/05/29 06:08:00;;;;;;;0.6;0.6;;;;;;;11.6;100.0;101360;;;;
2022/05/29 06:09:00;;;;;;;0.6;0.6;;;;;;;11.6;100.0;101360;;;;
2022/05/29 06:10:00;;;;;;;0.6;0.6;;;;;;;11.6;100.0;101370;;;;
2022/05/29 06:11:00;;;;;;;0.6;0.6;;;;;;;11.6;100.0;101370;;;;
2022/05/29 06:12:01;;;;;;;0.6;0.6;;;;;;;11.3;100.0;101370;;;;
2022/05/29 06:13:01;;;;;;;0.6;0.6;;;;;;;11.3;100.0;101370;;;;
2022/05/29 06:14:00;;;;;;;0.6;0.6;;;;;;;11.2;100.0;101370;;;;
2022/05/29 06:15:00;;;;;;;0.6;0.6;;;;;;;11.2;100.0;101370;;;;
2022/05/29 06:16:00;;;;;;;0.6;0.6;;;;;;;11.3;100.0;101370;;;;
2022/05/29 06:17:00;;;;;;;0.6;0.6;;;;;;;11.3;100.0;101370;;;;
2022/05/29 06:18:00;;;;;;;0.6;0.6;;;;;;;11.3;100.0;101370;;;;
2022/05/29 06:19:00;;;;;;;0.6;0.6;;;;;;;11.3;100.0;101370;;;;
2022/05/29 06:20:00;;;;;;;0.6;0.6;;;;;;;11.4;100.0;101360;;;;
2022/05/29 06:21:01;;;;;;;0.6;0.6;;;;;;;11.4;100.0;101360;;;;
2022/05/29 06:22:01;;;;;;;0.6;0.6;;;;;;;11.5;100.0;101370;;;;
2022/05/29 06:23:00;;;;;;;0.6;0.6;;;;;;;11.5;100.0;101370;;;;
2022/05/29 06:24:00;;;;;;;0.6;0.6;;;;;;;11.4;100.0;101360;;;;
2022/05/29 06:25:01;;;;;;;0.6;0.6;;;;;;;11.4;100.0;101360;;;;
2022/05/29 06:26:01;;;;;;;0.6;0.6;;;;;;;11.4;100.0;101360;;;;
2022/05/29 06:27:00;;;;;;;0.6;0.6;;;;;;;11.4;100.0;101360;;;;
2022/05/29 06:28:01;;;;;;;0.7;0.7;;;;;;;11.3;100.0;101360;;;;
2022/05/29 06:29:00;;;;;;;0.7;0.7;;;;;;;11.3;100.0;101360;;;;